sensor_id;sensor_type;location;lat;lon;timestamp;P1;durP1;ratioP1;P2;durP2;ratioP2
75930;SDS011;64609;47.052;15.462;2022-12-07T00:00:40;19.27;;;13.63;;
75930;SDS011;64609;47.052;15.462;2022-12-07T00:03:06;23.67;;;13.93;;
75930;SDS011;64609;47.052;15.462;2022-12-07T00:05:31;18.67;;;13.25;;
75930;SDS011;64609;47.052;15.462;2022-12-07T00:07:57;20.02;;;13.90;;
75930;SDS011;64609;47.052;15.462;2022-12-07T00:10:23;22.98;;;14.23;;
75930;SDS011;64609;47.052;15.462;2022-12-07T00:12:48;21.23;;;14.68;;
75930;SDS011;64609;47.052;15.462;2022-12-07T00:15:15;23.40;;;14.85;;
75930;SDS011;64609;47.052;15.462;2022-12-07T00:17:40;26.00;;;15.93;;
75930;SDS011;64609;47.052;15.462;2022-12-07T00:20:06;20.83;;;14.60;;
75930;SDS011;64609;47.052;15.462;2022-12-07T00:22:32;23.70;;;15.13;;
75930;SDS011;64609;47.052;15.462;2022-12-07T00:24:58;21.58;;;15.35;;
75930;SDS011;64609;47.052;15.462;2022-12-07T00:27:23;25.15;;;16.08;;
75930;SDS011;64609;47.052;15.462;2022-12-07T00:29:49;23.23;;;16.23;;
75930;SDS011;64609;47.052;15.462;2022-12-07T00:32:14;23.58;;;16.30;;
75930;SDS011;64609;47.052;15.462;2022-12-07T00:34:40;26.13;;;15.85;;
75930;SDS011;64609;47.052;15.462;2022-12-07T00:37:05;25.75;;;16.73;;
75930;SDS011;64609;47.052;15.462;2022-12-07T00:39:31;25.73;;;17.27;;
75930;SDS011;64609;47.052;15.462;2022-12-07T00:41:57;29.50;;;17.98;;
75930;SDS011;64609;47.052;15.462;2022-12-07T00:44:22;25.27;;;15.93;;
75930;SDS011;64609;47.052;15.462;2022-12-07T00:46:48;23.60;;;15.95;;
75930;SDS011;64609;47.052;15.462;2022-12-07T00:49:14;25.38;;;14.82;;
75930;SDS011;64609;47.052;15.462;2022-12-07T00:51:39;24.98;;;16.23;;
75930;SDS011;64609;47.052;15.462;2022-12-07T00:54:05;22.00;;;15.13;;
75930;SDS011;64609;47.052;15.462;2022-12-07T00:56:30;21.58;;;14.60;;
75930;SDS011;64609;47.052;15.462;2022-12-07T00:58:57;24.48;;;15.90;;
75930;SDS011;64609;47.052;15.462;2022-12-07T01:01:28;22.60;;;15.30;;
75930;SDS011;64609;47.052;15.462;2022-12-07T01:03:59;25.83;;;14.93;;
75930;SDS011;64609;47.052;15.462;2022-12-07T01:06:26;24.23;;;15.30;;
75930;SDS011;64609;47.052;15.462;2022-12-07T01:08:53;22.42;;;15.27;;
75930;SDS011;64609;47.052;15.462;2022-12-07T01:11:20;23.00;;;16.33;;
75930;SDS011;64609;47.052;15.462;2022-12-07T01:13:49;21.30;;;14.77;;
75930;SDS011;64609;47.052;15.462;2022-12-07T01:16:16;23.42;;;16.02;;
75930;SDS011;64609;47.052;15.462;2022-12-07T01:18:45;25.73;;;15.77;;
75930;SDS011;64609;47.052;15.462;2022-12-07T01:21:13;24.27;;;15.90;;
75930;SDS011;64609;47.052;15.462;2022-12-07T01:23:41;25.88;;;15.82;;
75930;SDS011;64609;47.052;15.462;2022-12-07T01:26:10;25.45;;;15.63;;
75930;SDS011;64609;47.052;15.462;2022-12-07T01:28:37;22.93;;;15.00;;
75930;SDS011;64609;47.052;15.462;2022-12-07T01:31:04;22.35;;;15.68;;
75930;SDS011;64609;47.052;15.462;2022-12-07T01:33:33;22.08;;;15.52;;
75930;SDS011;64609;47.052;15.462;2022-12-07T01:36:00;23.65;;;14.80;;
75930;SDS011;64609;47.052;15.462;2022-12-07T01:40:56;21.15;;;14.00;;
75930;SDS011;64609;47.052;15.462;2022-12-07T01:43:23;23.15;;;14.40;;
75930;SDS011;64609;47.052;15.462;2022-12-07T01:45:51;22.48;;;14.80;;
75930;SDS011;64609;47.052;15.462;2022-12-07T01:48:17;24.15;;;14.63;;
75930;SDS011;64609;47.052;15.462;2022-12-07T01:50:47;22.63;;;15.23;;
75930;SDS011;64609;47.052;15.462;2022-12-07T01:53:15;24.02;;;15.70;;
75930;SDS011;64609;47.052;15.462;2022-12-07T01:55:44;23.02;;;15.45;;
75930;SDS011;64609;47.052;15.462;2022-12-07T01:58:12;22.08;;;15.10;;
75930;SDS011;64609;47.052;15.462;2022-12-07T02:00:38;20.70;;;14.48;;
75930;SDS011;64609;47.052;15.462;2022-12-07T02:03:05;25.67;;;16.27;;
75930;SDS011;64609;47.052;15.462;2022-12-07T02:05:37;22.98;;;16.58;;
75930;SDS011;64609;47.052;15.462;2022-12-07T02:08:05;28.73;;;17.40;;
75930;SDS011;64609;47.052;15.462;2022-12-07T02:10:32;22.98;;;16.40;;
75930;SDS011;64609;47.052;15.462;2022-12-07T02:13:00;26.42;;;16.10;;
75930;SDS011;64609;47.052;15.462;2022-12-07T02:15:34;25.55;;;17.08;;
75930;SDS011;64609;47.052;15.462;2022-12-07T02:18:16;25.58;;;16.42;;
75930;SDS011;64609;47.052;15.462;2022-12-07T02:20:57;24.83;;;16.42;;
75930;SDS011;64609;47.052;15.462;2022-12-07T02:23:36;25.63;;;15.93;;
75930;SDS011;64609;47.052;15.462;2022-12-07T02:34:59;23.30;;;15.10;;
75930;SDS011;64609;47.052;15.462;2022-12-07T02:37:40;24.33;;;15.18;;
75930;SDS011;64609;47.052;15.462;2022-12-07T02:40:33;22.20;;;14.80;;
75930;SDS011;64609;47.052;15.462;2022-12-07T02:43:16;25.17;;;15.00;;
75930;SDS011;64609;47.052;15.462;2022-12-07T02:45:51;23.75;;;14.95;;
75930;SDS011;64609;47.052;15.462;2022-12-07T02:48:19;22.90;;;13.50;;
75930;SDS011;64609;47.052;15.462;2022-12-07T02:50:50;21.90;;;13.77;;
75930;SDS011;64609;47.052;15.462;2022-12-07T02:53:33;23.15;;;14.23;;
75930;SDS011;64609;47.052;15.462;2022-12-07T03:01:25;23.38;;;14.32;;
75930;SDS011;64609;47.052;15.462;2022-12-07T03:05:00;24.13;;;15.25;;
75930;SDS011;64609;47.052;15.462;2022-12-07T03:06:56;22.48;;;14.65;;
75930;SDS011;64609;47.052;15.462;2022-12-07T03:09:46;22.77;;;14.57;;
75930;SDS011;64609;47.052;15.462;2022-12-07T03:12:24;23.80;;;15.23;;
75930;SDS011;64609;47.052;15.462;2022-12-07T03:15:07;21.27;;;13.75;;
75930;SDS011;64609;47.052;15.462;2022-12-07T03:17:39;19.65;;;12.82;;
75930;SDS011;64609;47.052;15.462;2022-12-07T03:20:09;20.35;;;12.80;;
75930;SDS011;64609;47.052;15.462;2022-12-07T03:22:38;21.65;;;11.73;;
75930;SDS011;64609;47.052;15.462;2022-12-07T03:25:08;20.60;;;11.77;;
75930;SDS011;64609;47.052;15.462;2022-12-07T03:27:44;19.25;;;11.20;;
75930;SDS011;64609;47.052;15.462;2022-12-07T03:30:27;18.23;;;11.85;;
75930;SDS011;64609;47.052;15.462;2022-12-07T03:33:12;19.45;;;11.75;;
75930;SDS011;64609;47.052;15.462;2022-12-07T03:38:33;18.70;;;11.68;;
75930;SDS011;64609;47.052;15.462;2022-12-07T03:43:35;17.45;;;11.32;;
75930;SDS011;64609;47.052;15.462;2022-12-07T03:54:32;19.05;;;11.07;;
75930;SDS011;64609;47.052;15.462;2022-12-07T03:57:19;18.08;;;10.88;;
75930;SDS011;64609;47.052;15.462;2022-12-07T03:59:48;16.55;;;11.07;;
75930;SDS011;64609;47.052;15.462;2022-12-07T04:02:14;17.83;;;11.00;;
75930;SDS011;64609;47.052;15.462;2022-12-07T04:04:41;15.80;;;10.25;;
75930;SDS011;64609;47.052;15.462;2022-12-07T04:07:07;16.63;;;10.27;;
75930;SDS011;64609;47.052;15.462;2022-12-07T04:09:32;14.85;;;10.18;;
75930;SDS011;64609;47.052;15.462;2022-12-07T04:11:58;15.48;;;9.77;;
75930;SDS011;64609;47.052;15.462;2022-12-07T04:14:24;14.00;;;9.43;;
75930;SDS011;64609;47.052;15.462;2022-12-07T04:16:59;14.93;;;9.95;;
75930;SDS011;64609;47.052;15.462;2022-12-07T04:19:28;13.90;;;9.40;;
75930;SDS011;64609;47.052;15.462;2022-12-07T04:21:57;13.32;;;9.20;;
75930;SDS011;64609;47.052;15.462;2022-12-07T04:24:24;12.23;;;8.35;;
75930;SDS011;64609;47.052;15.462;2022-12-07T04:26:50;14.48;;;9.40;;
75930;SDS011;64609;47.052;15.462;2022-12-07T04:29:16;14.02;;;9.80;;
75930;SDS011;64609;47.052;15.462;2022-12-07T04:31:43;13.77;;;9.88;;
75930;SDS011;64609;47.052;15.462;2022-12-07T04:34:09;13.45;;;9.38;;
75930;SDS011;64609;47.052;15.462;2022-12-07T04:36:36;15.23;;;9.43;;
75930;SDS011;64609;47.052;15.462;2022-12-07T04:39:02;14.82;;;9.13;;
75930;SDS011;64609;47.052;15.462;2022-12-07T04:41:29;11.73;;;8.85;;
75930;SDS011;64609;47.052;15.462;2022-12-07T04:43:55;15.02;;;9.38;;
75930;SDS011;64609;47.052;15.462;2022-12-07T04:46:24;13.93;;;9.27;;
75930;SDS011;64609;47.052;15.462;2022-12-07T04:48:50;13.88;;;9.20;;
75930;SDS011;64609;47.052;15.462;2022-12-07T04:51:18;13.65;;;9.45;;
75930;SDS011;64609;47.052;15.462;2022-12-07T04:53:46;13.20;;;9.23;;
75930;SDS011;64609;47.052;15.462;2022-12-07T04:56:11;13.65;;;9.25;;
75930;SDS011;64609;47.052;15.462;2022-12-07T04:58:38;13.75;;;9.63;;
75930;SDS011;64609;47.052;15.462;2022-12-07T05:01:03;12.93;;;10.20;;
75930;SDS011;64609;47.052;15.462;2022-12-07T05:03:29;14.05;;;9.20;;
75930;SDS011;64609;47.052;15.462;2022-12-07T05:05:54;14.18;;;10.10;;
75930;SDS011;64609;47.052;15.462;2022-12-07T05:08:20;13.32;;;9.55;;
75930;SDS011;64609;47.052;15.462;2022-12-07T05:10:46;14.60;;;10.18;;
75930;SDS011;64609;47.052;15.462;2022-12-07T05:13:14;14.30;;;9.90;;
75930;SDS011;64609;47.052;15.462;2022-12-07T05:15:39;14.48;;;9.73;;
75930;SDS011;64609;47.052;15.462;2022-12-07T05:18:05;14.20;;;9.50;;
75930;SDS011;64609;47.052;15.462;2022-12-07T05:20:31;13.60;;;9.75;;
75930;SDS011;64609;47.052;15.462;2022-12-07T05:22:57;16.67;;;10.27;;
75930;SDS011;64609;47.052;15.462;2022-12-07T05:25:23;14.88;;;10.20;;
75930;SDS011;64609;47.052;15.462;2022-12-07T05:27:49;15.82;;;10.07;;
75930;SDS011;64609;47.052;15.462;2022-12-07T05:30:14;14.07;;;10.30;;
75930;SDS011;64609;47.052;15.462;2022-12-07T05:32:40;15.13;;;9.93;;
75930;SDS011;64609;47.052;15.462;2022-12-07T05:35:06;16.23;;;10.23;;
75930;SDS011;64609;47.052;15.462;2022-12-07T05:37:32;12.57;;;9.60;;
75930;SDS011;64609;47.052;15.462;2022-12-07T05:39:57;14.65;;;10.15;;
75930;SDS011;64609;47.052;15.462;2022-12-07T05:42:23;14.57;;;10.43;;
75930;SDS011;64609;47.052;15.462;2022-12-07T05:44:49;15.48;;;10.25;;
75930;SDS011;64609;47.052;15.462;2022-12-07T05:47:15;16.17;;;10.15;;
75930;SDS011;64609;47.052;15.462;2022-12-07T05:49:41;15.68;;;10.70;;
75930;SDS011;64609;47.052;15.462;2022-12-07T05:52:07;14.20;;;10.00;;
75930;SDS011;64609;47.052;15.462;2022-12-07T05:54:32;18.48;;;10.68;;
75930;SDS011;64609;47.052;15.462;2022-12-07T05:56:58;17.13;;;11.15;;
75930;SDS011;64609;47.052;15.462;2022-12-07T05:59:24;17.02;;;10.43;;
75930;SDS011;64609;47.052;15.462;2022-12-07T06:04:16;21.15;;;11.18;;
75930;SDS011;64609;47.052;15.462;2022-12-07T06:06:42;14.52;;;9.93;;
75930;SDS011;64609;47.052;15.462;2022-12-07T06:09:08;15.15;;;10.90;;
75930;SDS011;64609;47.052;15.462;2022-12-07T06:11:34;15.75;;;10.68;;
75930;SDS011;64609;47.052;15.462;2022-12-07T06:14:18;16.33;;;11.23;;
75930;SDS011;64609;47.052;15.462;2022-12-07T06:16:44;14.80;;;11.00;;
75930;SDS011;64609;47.052;15.462;2022-12-07T06:19:10;18.98;;;11.52;;
75930;SDS011;64609;47.052;15.462;2022-12-07T06:21:36;17.25;;;11.93;;
75930;SDS011;64609;47.052;15.462;2022-12-07T06:24:01;14.90;;;10.52;;
75930;SDS011;64609;47.052;15.462;2022-12-07T06:26:27;17.60;;;11.38;;
75930;SDS011;64609;47.052;15.462;2022-12-07T06:28:53;16.75;;;11.68;;
75930;SDS011;64609;47.052;15.462;2022-12-07T06:31:19;21.58;;;13.35;;
75930;SDS011;64609;47.052;15.462;2022-12-07T06:33:45;19.15;;;12.32;;
75930;SDS011;64609;47.052;15.462;2022-12-07T06:36:10;19.10;;;13.55;;
75930;SDS011;64609;47.052;15.462;2022-12-07T06:38:36;18.83;;;13.23;;
75930;SDS011;64609;47.052;15.462;2022-12-07T06:41:02;17.60;;;11.98;;
75930;SDS011;64609;47.052;15.462;2022-12-07T06:43:28;18.73;;;12.52;;
75930;SDS011;64609;47.052;15.462;2022-12-07T06:45:54;25.70;;;12.98;;
75930;SDS011;64609;47.052;15.462;2022-12-07T06:48:19;19.05;;;12.30;;
75930;SDS011;64609;47.052;15.462;2022-12-07T06:50:45;25.30;;;14.05;;
75930;SDS011;64609;47.052;15.462;2022-12-07T06:53:11;26.13;;;13.43;;
75930;SDS011;64609;47.052;15.462;2022-12-07T06:55:37;22.77;;;13.55;;
75930;SDS011;64609;47.052;15.462;2022-12-07T06:58:03;22.67;;;14.07;;
75930;SDS011;64609;47.052;15.462;2022-12-07T07:00:28;26.10;;;13.77;;
75930;SDS011;64609;47.052;15.462;2022-12-07T07:02:55;22.10;;;13.75;;
75930;SDS011;64609;47.052;15.462;2022-12-07T07:05:21;22.17;;;14.18;;
75930;SDS011;64609;47.052;15.462;2022-12-07T07:07:47;28.23;;;13.63;;
75930;SDS011;64609;47.052;15.462;2022-12-07T07:10:13;25.13;;;15.20;;
75930;SDS011;64609;47.052;15.462;2022-12-07T07:12:39;24.45;;;14.63;;
75930;SDS011;64609;47.052;15.462;2022-12-07T07:15:05;22.20;;;13.80;;
75930;SDS011;64609;47.052;15.462;2022-12-07T07:17:31;22.50;;;13.82;;
75930;SDS011;64609;47.052;15.462;2022-12-07T07:19:57;27.80;;;13.15;;
75930;SDS011;64609;47.052;15.462;2022-12-07T07:22:22;26.80;;;13.60;;
75930;SDS011;64609;47.052;15.462;2022-12-07T07:24:48;22.65;;;13.55;;
75930;SDS011;64609;47.052;15.462;2022-12-07T07:27:14;26.38;;;14.88;;
75930;SDS011;64609;47.052;15.462;2022-12-07T07:29:39;22.73;;;14.27;;
75930;SDS011;64609;47.052;15.462;2022-12-07T07:32:05;23.65;;;14.73;;
75930;SDS011;64609;47.052;15.462;2022-12-07T07:34:32;26.55;;;14.10;;
75930;SDS011;64609;47.052;15.462;2022-12-07T07:36:58;25.40;;;15.25;;
75930;SDS011;64609;47.052;15.462;2022-12-07T07:39:24;22.92;;;15.02;;
75930;SDS011;64609;47.052;15.462;2022-12-07T07:41:49;23.10;;;14.32;;
75930;SDS011;64609;47.052;15.462;2022-12-07T07:44:15;21.05;;;13.85;;
75930;SDS011;64609;47.052;15.462;2022-12-07T07:46:40;22.95;;;14.10;;
75930;SDS011;64609;47.052;15.462;2022-12-07T07:49:06;25.13;;;14.85;;
75930;SDS011;64609;47.052;15.462;2022-12-07T07:51:32;20.20;;;14.50;;
75930;SDS011;64609;47.052;15.462;2022-12-07T07:53:57;27.08;;;14.98;;
75930;SDS011;64609;47.052;15.462;2022-12-07T07:56:23;24.50;;;14.63;;
75930;SDS011;64609;47.052;15.462;2022-12-07T07:58:51;33.45;;;16.55;;
75930;SDS011;64609;47.052;15.462;2022-12-07T08:01:17;30.30;;;15.85;;
75930;SDS011;64609;47.052;15.462;2022-12-07T08:03:44;38.42;;;15.93;;
75930;SDS011;64609;47.052;15.462;2022-12-07T08:06:13;30.70;;;16.20;;
75930;SDS011;64609;47.052;15.462;2022-12-07T08:08:38;36.58;;;17.30;;
75930;SDS011;64609;47.052;15.462;2022-12-07T08:11:05;38.03;;;18.20;;
75930;SDS011;64609;47.052;15.462;2022-12-07T08:13:31;38.78;;;18.35;;
75930;SDS011;64609;47.052;15.462;2022-12-07T08:15:56;34.10;;;16.73;;
75930;SDS011;64609;47.052;15.462;2022-12-07T08:18:22;31.88;;;17.25;;
75930;SDS011;64609;47.052;15.462;2022-12-07T08:20:48;31.58;;;17.02;;
75930;SDS011;64609;47.052;15.462;2022-12-07T08:23:13;36.55;;;18.20;;
75930;SDS011;64609;47.052;15.462;2022-12-07T08:25:39;37.42;;;17.52;;
75930;SDS011;64609;47.052;15.462;2022-12-07T08:28:05;45.00;;;18.83;;
75930;SDS011;64609;47.052;15.462;2022-12-07T08:30:32;42.95;;;20.55;;
75930;SDS011;64609;47.052;15.462;2022-12-07T08:32:58;34.30;;;18.95;;
75930;SDS011;64609;47.052;15.462;2022-12-07T08:35:24;35.95;;;17.80;;
75930;SDS011;64609;47.052;15.462;2022-12-07T08:37:49;29.90;;;17.13;;
75930;SDS011;64609;47.052;15.462;2022-12-07T08:40:15;29.45;;;17.70;;
75930;SDS011;64609;47.052;15.462;2022-12-07T08:42:43;42.90;;;19.10;;
75930;SDS011;64609;47.052;15.462;2022-12-07T08:45:13;39.45;;;19.05;;
75930;SDS011;64609;47.052;15.462;2022-12-07T08:47:42;34.63;;;18.30;;
75930;SDS011;64609;47.052;15.462;2022-12-07T08:50:11;33.75;;;18.40;;
75930;SDS011;64609;47.052;15.462;2022-12-07T08:52:37;34.13;;;18.45;;
75930;SDS011;64609;47.052;15.462;2022-12-07T08:55:04;38.55;;;19.23;;
75930;SDS011;64609;47.052;15.462;2022-12-07T08:57:31;33.78;;;19.05;;
75930;SDS011;64609;47.052;15.462;2022-12-07T08:59:58;39.47;;;19.67;;
75930;SDS011;64609;47.052;15.462;2022-12-07T09:02:24;39.28;;;19.98;;
75930;SDS011;64609;47.052;15.462;2022-12-07T09:04:49;37.10;;;19.98;;
75930;SDS011;64609;47.052;15.462;2022-12-07T09:07:15;40.88;;;19.35;;
75930;SDS011;64609;47.052;15.462;2022-12-07T09:09:41;42.70;;;19.88;;
75930;SDS011;64609;47.052;15.462;2022-12-07T09:12:07;48.70;;;20.48;;
75930;SDS011;64609;47.052;15.462;2022-12-07T09:14:33;48.35;;;20.08;;
75930;SDS011;64609;47.052;15.462;2022-12-07T09:17:05;35.15;;;20.23;;
75930;SDS011;64609;47.052;15.462;2022-12-07T09:19:32;35.55;;;20.35;;
75930;SDS011;64609;47.052;15.462;2022-12-07T09:21:57;38.95;;;19.02;;
75930;SDS011;64609;47.052;15.462;2022-12-07T09:24:23;38.38;;;19.02;;
75930;SDS011;64609;47.052;15.462;2022-12-07T09:26:48;33.30;;;19.42;;
75930;SDS011;64609;47.052;15.462;2022-12-07T09:29:14;37.13;;;18.98;;
75930;SDS011;64609;47.052;15.462;2022-12-07T09:31:40;39.08;;;19.95;;
75930;SDS011;64609;47.052;15.462;2022-12-07T09:34:05;39.85;;;19.10;;
75930;SDS011;64609;47.052;15.462;2022-12-07T09:36:32;39.30;;;20.83;;
75930;SDS011;64609;47.052;15.462;2022-12-07T09:38:58;40.45;;;19.58;;
75930;SDS011;64609;47.052;15.462;2022-12-07T09:41:24;39.65;;;19.85;;
75930;SDS011;64609;47.052;15.462;2022-12-07T09:43:52;35.33;;;20.88;;
75930;SDS011;64609;47.052;15.462;2022-12-07T09:46:21;40.17;;;20.67;;
75930;SDS011;64609;47.052;15.462;2022-12-07T09:48:47;41.33;;;20.83;;
75930;SDS011;64609;47.052;15.462;2022-12-07T09:51:17;34.53;;;19.35;;
75930;SDS011;64609;47.052;15.462;2022-12-07T09:53:45;35.35;;;19.85;;
75930;SDS011;64609;47.052;15.462;2022-12-07T09:56:13;34.85;;;19.58;;
75930;SDS011;64609;47.052;15.462;2022-12-07T09:58:39;42.00;;;18.70;;
75930;SDS011;64609;47.052;15.462;2022-12-07T10:03:35;33.35;;;19.13;;
75930;SDS011;64609;47.052;15.462;2022-12-07T10:06:03;39.20;;;19.38;;
75930;SDS011;64609;47.052;15.462;2022-12-07T10:08:30;39.28;;;20.10;;
75930;SDS011;64609;47.052;15.462;2022-12-07T10:10:56;36.33;;;20.30;;
75930;SDS011;64609;47.052;15.462;2022-12-07T10:13:33;40.13;;;22.52;;
75930;SDS011;64609;47.052;15.462;2022-12-07T10:16:01;41.22;;;20.52;;
75930;SDS011;64609;47.052;15.462;2022-12-07T10:18:32;39.70;;;19.58;;
75930;SDS011;64609;47.052;15.462;2022-12-07T10:23:29;41.92;;;19.35;;
75930;SDS011;64609;47.052;15.462;2022-12-07T10:25:55;42.47;;;20.38;;
75930;SDS011;64609;47.052;15.462;2022-12-07T10:28:21;44.25;;;20.27;;
75930;SDS011;64609;47.052;15.462;2022-12-07T10:30:57;32.83;;;19.85;;
75930;SDS011;64609;47.052;15.462;2022-12-07T10:41:57;42.75;;;20.85;;
75930;SDS011;64609;47.052;15.462;2022-12-07T10:44:25;33.78;;;19.50;;
75930;SDS011;64609;47.052;15.462;2022-12-07T10:49:54;39.20;;;20.50;;
75930;SDS011;64609;47.052;15.462;2022-12-07T10:55:24;42.38;;;20.58;;
75930;SDS011;64609;47.052;15.462;2022-12-07T11:04:13;48.10;;;20.45;;
75930;SDS011;64609;47.052;15.462;2022-12-07T11:06:51;35.78;;;19.25;;
75930;SDS011;64609;47.052;15.462;2022-12-07T11:15:03;37.28;;;19.58;;
75930;SDS011;64609;47.052;15.462;2022-12-07T11:20:45;35.78;;;18.25;;
75930;SDS011;64609;47.052;15.462;2022-12-07T11:26:18;39.38;;;18.63;;
75930;SDS011;64609;47.052;15.462;2022-12-07T11:35:45;34.03;;;18.45;;
75930;SDS011;64609;47.052;15.462;2022-12-07T11:38:15;50.13;;;20.40;;
75930;SDS011;64609;47.052;15.462;2022-12-07T11:40:43;37.20;;;19.77;;
75930;SDS011;64609;47.052;15.462;2022-12-07T11:45:42;41.53;;;21.00;;
75930;SDS011;64609;47.052;15.462;2022-12-07T11:48:18;39.38;;;19.38;;
75930;SDS011;64609;47.052;15.462;2022-12-07T11:50:57;38.67;;;19.98;;
75930;SDS011;64609;47.052;15.462;2022-12-07T11:53:25;37.35;;;20.70;;
75930;SDS011;64609;47.052;15.462;2022-12-07T11:56:14;42.05;;;20.35;;
75930;SDS011;64609;47.052;15.462;2022-12-07T12:04:01;37.45;;;20.65;;
75930;SDS011;64609;47.052;15.462;2022-12-07T12:06:40;41.08;;;19.90;;
75930;SDS011;64609;47.052;15.462;2022-12-07T12:09:14;40.55;;;20.05;;
75930;SDS011;64609;47.052;15.462;2022-12-07T12:17:42;50.00;;;20.88;;
75930;SDS011;64609;47.052;15.462;2022-12-07T12:20:36;37.20;;;20.23;;
75930;SDS011;64609;47.052;15.462;2022-12-07T12:25:55;35.92;;;18.50;;
75930;SDS011;64609;47.052;15.462;2022-12-07T12:28:28;34.00;;;18.63;;
75930;SDS011;64609;47.052;15.462;2022-12-07T12:33:48;41.05;;;19.40;;
75930;SDS011;64609;47.052;15.462;2022-12-07T12:38:48;39.78;;;20.20;;
75930;SDS011;64609;47.052;15.462;2022-12-07T12:41:51;34.58;;;18.73;;
75930;SDS011;64609;47.052;15.462;2022-12-07T12:54:59;31.38;;;18.15;;
75930;SDS011;64609;47.052;15.462;2022-12-07T12:57:37;31.88;;;18.33;;
75930;SDS011;64609;47.052;15.462;2022-12-07T13:00:15;29.08;;;18.60;;
75930;SDS011;64609;47.052;15.462;2022-12-07T13:02:53;31.25;;;18.33;;
75930;SDS011;64609;47.052;15.462;2022-12-07T13:05:23;36.15;;;18.52;;
75930;SDS011;64609;47.052;15.462;2022-12-07T13:21:00;37.17;;;18.73;;
75930;SDS011;64609;47.052;15.462;2022-12-07T13:26:17;30.88;;;17.67;;
75930;SDS011;64609;47.052;15.462;2022-12-07T13:28:44;29.33;;;17.42;;
75930;SDS011;64609;47.052;15.462;2022-12-07T13:33:57;28.27;;;17.33;;
75930;SDS011;64609;47.052;15.462;2022-12-07T13:36:23;33.70;;;17.48;;
75930;SDS011;64609;47.052;15.462;2022-12-07T13:38:52;28.98;;;17.13;;
75930;SDS011;64609;47.052;15.462;2022-12-07T13:41:26;30.42;;;17.95;;
75930;SDS011;64609;47.052;15.462;2022-12-07T13:44:14;30.45;;;17.70;;
75930;SDS011;64609;47.052;15.462;2022-12-07T13:49:26;30.52;;;16.98;;
75930;SDS011;64609;47.052;15.462;2022-12-07T13:57:31;28.08;;;18.25;;
75930;SDS011;64609;47.052;15.462;2022-12-07T14:00:00;25.67;;;17.02;;
75930;SDS011;64609;47.052;15.462;2022-12-07T14:02:34;29.80;;;16.77;;
75930;SDS011;64609;47.052;15.462;2022-12-07T14:05:08;26.80;;;17.63;;
75930;SDS011;64609;47.052;15.462;2022-12-07T14:07:48;31.83;;;17.35;;
75930;SDS011;64609;47.052;15.462;2022-12-07T14:10:31;25.75;;;18.15;;
75930;SDS011;64609;47.052;15.462;2022-12-07T14:13:02;27.48;;;17.80;;
75930;SDS011;64609;47.052;15.462;2022-12-07T14:15:49;28.05;;;17.45;;
75930;SDS011;64609;47.052;15.462;2022-12-07T14:23:44;31.48;;;18.58;;
75930;SDS011;64609;47.052;15.462;2022-12-07T14:26:14;32.70;;;17.55;;
75930;SDS011;64609;47.052;15.462;2022-12-07T14:28:46;30.38;;;17.67;;
75930;SDS011;64609;47.052;15.462;2022-12-07T14:31:13;35.20;;;18.05;;
75930;SDS011;64609;47.052;15.462;2022-12-07T14:33:45;26.83;;;17.00;;
75930;SDS011;64609;47.052;15.462;2022-12-07T14:36:11;32.67;;;17.58;;
75930;SDS011;64609;47.052;15.462;2022-12-07T14:38:37;29.30;;;18.30;;
75930;SDS011;64609;47.052;15.462;2022-12-07T14:41:03;28.77;;;18.70;;
75930;SDS011;64609;47.052;15.462;2022-12-07T14:43:49;23.73;;;16.92;;
75930;SDS011;64609;47.052;15.462;2022-12-07T14:46:15;36.40;;;18.98;;
75930;SDS011;64609;47.052;15.462;2022-12-07T14:48:41;29.00;;;18.10;;
75930;SDS011;64609;47.052;15.462;2022-12-07T14:51:07;31.88;;;18.15;;
75930;SDS011;64609;47.052;15.462;2022-12-07T14:53:38;33.70;;;18.23;;
75930;SDS011;64609;47.052;15.462;2022-12-07T14:56:06;29.75;;;19.25;;
75930;SDS011;64609;47.052;15.462;2022-12-07T14:58:32;28.38;;;18.27;;
75930;SDS011;64609;47.052;15.462;2022-12-07T15:00:57;37.67;;;18.77;;
75930;SDS011;64609;47.052;15.462;2022-12-07T15:03:23;30.27;;;18.85;;
75930;SDS011;64609;47.052;15.462;2022-12-07T15:05:49;30.63;;;19.23;;
75930;SDS011;64609;47.052;15.462;2022-12-07T15:08:14;28.42;;;20.13;;
75930;SDS011;64609;47.052;15.462;2022-12-07T15:10:40;28.50;;;18.50;;
75930;SDS011;64609;47.052;15.462;2022-12-07T15:13:07;31.13;;;19.90;;
75930;SDS011;64609;47.052;15.462;2022-12-07T15:15:52;28.85;;;19.40;;
75930;SDS011;64609;47.052;15.462;2022-12-07T15:18:18;28.25;;;18.40;;
75930;SDS011;64609;47.052;15.462;2022-12-07T15:20:45;29.83;;;19.38;;
75930;SDS011;64609;47.052;15.462;2022-12-07T15:23:11;30.20;;;19.40;;
75930;SDS011;64609;47.052;15.462;2022-12-07T15:25:43;30.98;;;19.30;;
75930;SDS011;64609;47.052;15.462;2022-12-07T15:28:11;26.55;;;19.50;;
75930;SDS011;64609;47.052;15.462;2022-12-07T15:30:37;25.65;;;17.83;;
75930;SDS011;64609;47.052;15.462;2022-12-07T15:33:03;37.70;;;19.10;;
75930;SDS011;64609;47.052;15.462;2022-12-07T15:35:29;30.10;;;18.00;;
75930;SDS011;64609;47.052;15.462;2022-12-07T15:37:55;27.67;;;17.20;;
75930;SDS011;64609;47.052;15.462;2022-12-07T15:40:20;27.02;;;17.13;;
75930;SDS011;64609;47.052;15.462;2022-12-07T15:42:46;33.17;;;17.13;;
75930;SDS011;64609;47.052;15.462;2022-12-07T15:45:12;29.00;;;17.55;;
75930;SDS011;64609;47.052;15.462;2022-12-07T15:47:41;23.40;;;15.60;;
75930;SDS011;64609;47.052;15.462;2022-12-07T15:50:09;26.25;;;16.58;;
75930;SDS011;64609;47.052;15.462;2022-12-07T15:52:37;26.20;;;16.83;;
75930;SDS011;64609;47.052;15.462;2022-12-07T15:55:03;25.38;;;16.63;;
75930;SDS011;64609;47.052;15.462;2022-12-07T15:57:30;25.27;;;16.63;;
75930;SDS011;64609;47.052;15.462;2022-12-07T15:59:56;28.88;;;17.02;;
75930;SDS011;64609;47.052;15.462;2022-12-07T16:02:23;24.67;;;17.30;;
75930;SDS011;64609;47.052;15.462;2022-12-07T16:04:49;30.08;;;17.83;;
75930;SDS011;64609;47.052;15.462;2022-12-07T16:07:16;24.73;;;16.70;;
75930;SDS011;64609;47.052;15.462;2022-12-07T16:09:42;27.08;;;17.92;;
75930;SDS011;64609;47.052;15.462;2022-12-07T16:12:09;27.02;;;17.90;;
75930;SDS011;64609;47.052;15.462;2022-12-07T16:14:35;27.50;;;15.93;;
75930;SDS011;64609;47.052;15.462;2022-12-07T16:17:01;23.67;;;15.52;;
75930;SDS011;64609;47.052;15.462;2022-12-07T16:19:29;33.58;;;15.98;;
75930;SDS011;64609;47.052;15.462;2022-12-07T16:21:55;26.80;;;16.55;;
75930;SDS011;64609;47.052;15.462;2022-12-07T16:24:21;23.88;;;16.48;;
75930;SDS011;64609;47.052;15.462;2022-12-07T16:26:47;34.72;;;18.02;;
75930;SDS011;64609;47.052;15.462;2022-12-07T16:29:12;28.05;;;18.58;;
75930;SDS011;64609;47.052;15.462;2022-12-07T16:31:39;35.63;;;19.23;;
75930;SDS011;64609;47.052;15.462;2022-12-07T16:34:05;32.05;;;19.05;;
75930;SDS011;64609;47.052;15.462;2022-12-07T16:36:31;33.90;;;19.17;;
75930;SDS011;64609;47.052;15.462;2022-12-07T16:38:57;26.23;;;18.77;;
75930;SDS011;64609;47.052;15.462;2022-12-07T16:41:24;31.98;;;18.05;;